Time;durP1;ratioP1;P1;durP2;ratioP2;P2;SDS_P1;SDS_P2;PMS_P1;PMS_P2;Temp;Humidity;BMP_temperature;BMP_pressure;BME280_temperature;BME280_humidity;BME280_pressure;Samples;Min_cycle;Max_cycle;Signal;HPM_P1;HPM_P2
2021/07/31 00:00:18;;;;;;;22.58;6.95;;;16.50;99.90;;;;;;5010889;28;20203;-82
2021/07/31 00:02:46;;;;;;;26.75;7.65;;;16.50;99.90;;;;;;5011290;28;20199;-82
2021/07/31 00:05:13;;;;;;;18.73;7.55;;;16.50;99.90;;;;;;5023177;28;20238;-83
2021/07/31 00:07:43;;;;;;;17.50;6.68;;;16.40;99.90;;;;;;5030605;28;20198;-83
2021/07/31 00:10:11;;;;;;;17.17;6.32;;;16.40;99.90;;;;;;5030495;28;20921;-84
2021/07/31 00:12:38;;;;;;;16.42;5.75;;;16.40;99.90;;;;;;5030593;28;20206;-83
2021/07/31 00:15:06;;;;;;;15.77;5.90;;;16.40;99.90;;;;;;5011680;28;20214;-84
2021/07/31 00:17:33;;;;;;;22.70;6.53;;;16.40;99.90;;;;;;5012395;28;20206;-84
2021/07/31 00:20:01;;;;;;;19.80;6.70;;;16.40;99.90;;;;;;5011766;28;20230;-85
2021/07/31 00:22:28;;;;;;;17.00;6.63;;;16.50;99.90;;;;;;5011713;28;20196;-84
2021/07/31 00:24:55;;;;;;;12.27;5.65;;;16.50;99.90;;;;;;5010827;28;20227;-80
2021/07/31 00:27:22;;;;;;;19.40;7.75;;;16.50;99.90;;;;;;5008330;28;20199;-82
2021/07/31 00:29:48;;;;;;;23.05;8.90;;;16.50;99.90;;;;;;5008181;28;20207;-82
2021/07/31 00:32:15;;;;;;;22.92;7.30;;;16.50;99.90;;;;;;5008829;28;20214;-81
2021/07/31 00:34:42;;;;;;;26.45;8.07;;;16.50;99.90;;;;;;5008931;28;20214;-81
2021/07/31 00:37:10;;;;;;;21.55;7.68;;;16.40;99.90;;;;;;5008225;28;20202;-83
2021/07/31 00:39:39;;;;;;;19.02;6.95;;;16.50;99.90;;;;;;5008101;28;20211;-80
2021/07/31 00:42:07;;;;;;;22.58;7.97;;;16.40;99.90;;;;;;5008739;28;20886;-82
2021/07/31 00:44:33;;;;;;;22.83;7.93;;;16.40;99.90;;;;;;5020472;28;20217;-81
2021/07/31 00:47:01;;;;;;;24.25;6.40;;;16.50;99.90;;;;;;5028414;28;20202;-80
2021/07/31 00:49:28;;;;;;;22.02;7.47;;;16.40;99.90;;;;;;5022096;28;20226;-79
2021/07/31 00:51:55;;;;;;;23.75;7.80;;;16.40;99.90;;;;;;5008263;28;20761;-81
2021/07/31 00:54:24;;;;;;;20.20;6.57;;;16.40;99.90;;;;;;5007261;28;20195;-81
2021/07/31 00:56:50;;;;;;;11.90;4.70;;;16.40;99.90;;;;;;5009531;28;20210;-81
2021/07/31 00:59:18;;;;;;;17.83;4.53;;;16.40;99.90;;;;;;5008870;28;20213;-83
2021/07/31 01:01:45;;;;;;;16.10;4.82;;;16.40;99.90;;;;;;5008739;28;20212;-82
2021/07/31 01:04:12;;;;;;;14.23;5.45;;;16.40;99.90;;;;;;5016386;28;20586;-78
2021/07/31 01:06:38;;;;;;;11.40;5.32;;;16.40;99.90;;;;;;5027921;28;20237;-80
2021/07/31 01:09:07;;;;;;;15.73;5.32;;;16.40;99.90;;;;;;5027643;28;20194;-83
2021/07/31 01:11:36;;;;;;;14.18;5.15;;;16.40;99.90;;;;;;5028607;28;20279;-81
2021/07/31 01:14:03;;;;;;;14.75;5.65;;;16.50;99.90;;;;;;5019296;28;20219;-80
2021/07/31 01:16:30;;;;;;;15.60;6.00;;;16.50;99.90;;;;;;5008993;28;20205;-81
2021/07/31 01:18:57;;;;;;;21.33;6.72;;;16.60;99.90;;;;;;5008232;28;20334;-83
2021/07/31 01:21:37;;;;;;;19.77;8.18;;;16.60;99.90;;;;;;5010587;28;20209;-82
2021/07/31 01:24:04;;;;;;;15.82;5.63;;;16.60;99.90;;;;;;5028599;28;20209;-80
2021/07/31 01:26:32;;;;;;;18.20;5.05;;;16.60;99.90;;;;;;5023374;28;20742;-78
2021/07/31 01:28:58;;;;;;;17.08;5.50;;;16.60;99.90;;;;;;5010071;28;20207;-87
2021/07/31 01:31:25;;;;;;;12.90;5.75;;;16.60;99.90;;;;;;5010461;28;20210;-85
2021/07/31 01:33:52;;;;;;;17.33;6.25;;;16.60;99.90;;;;;;5010128;28;20203;-83
2021/07/31 01:36:19;;;;;;;15.43;5.03;;;16.60;99.90;;;;;;5010128;28;20195;-84
2021/07/31 01:38:47;;;;;;;18.33;6.13;;;16.60;99.90;;;;;;5010751;28;20203;-82
2021/07/31 01:41:14;;;;;;;20.10;5.60;;;16.50;99.90;;;;;;5007480;28;20234;-81
2021/07/31 01:43:41;;;;;;;19.55;6.63;;;16.60;99.90;;;;;;5006974;28;20944;-81
2021/07/31 01:46:07;;;;;;;22.50;6.30;;;16.60;99.90;;;;;;5010941;28;20226;-79
2021/07/31 01:48:34;;;;;;;22.63;6.43;;;16.60;99.90;;;;;;5026481;28;20249;-78
2021/07/31 01:51:01;;;;;;;12.95;6.03;;;16.70;99.90;;;;;;5016616;28;20203;-78
2021/07/31 01:53:28;;;;;;;21.33;6.43;;;16.60;99.90;;;;;;5005985;28;20215;-78
2021/07/31 01:55:56;;;;;;;18.85;5.70;;;16.60;99.90;;;;;;5006279;28;20592;-78
2021/07/31 01:58:22;;;;;;;19.60;6.82;;;16.60;99.90;;;;;;5006637;28;20214;-79
2021/07/31 02:00:49;;;;;;;23.33;6.47;;;16.60;99.90;;;;;;5026395;28;20495;-78
2021/07/31 02:03:16;;;;;;;20.55;6.55;;;16.60;99.90;;;;;;5016123;28;20206;-78
2021/07/31 02:05:43;;;;;;;19.90;5.25;;;16.60;99.90;;;;;;5005646;28;20231;-76
2021/07/31 02:08:09;;;;;;;19.80;5.82;;;16.70;99.90;;;;;;5005868;28;20206;-80
2021/07/31 02:10:36;;;;;;;21.05;6.05;;;16.70;99.90;;;;;;5006435;28;20203;-80
2021/07/31 02:13:04;;;;;;;22.75;5.78;;;16.70;99.90;;;;;;5005549;28;20222;-79
2021/07/31 02:15:31;;;;;;;27.55;6.40;;;16.70;99.90;;;;;;5004855;28;20195;-80
2021/07/31 02:17:58;;;;;;;20.60;5.47;;;16.70;99.90;;;;;;5003530;28;20594;-82
2021/07/31 02:20:25;;;;;;;24.48;5.40;;;16.60;99.90;;;;;;5005196;28;20226;-79
2021/07/31 02:22:53;;;;;;;23.90;5.65;;;16.60;99.90;;;;;;5005351;28;20207;-78
2021/07/31 02:25:19;;;;;;;21.75;5.75;;;16.60;99.90;;;;;;5005247;28;20223;-79
2021/07/31 02:27:46;;;;;;;32.38;7.30;;;16.50;99.90;;;;;;5005522;28;20211;-80
2021/07/31 02:30:14;;;;;;;26.58;5.78;;;16.40;99.90;;;;;;5005509;28;20218;-79
2021/07/31 02:32:41;;;;;;;23.98;5.65;;;16.40;99.90;;;;;;5005250;28;20203;-82
2021/07/31 02:35:10;;;;;;;24.77;5.82;;;16.50;99.90;;;;;;5004863;28;20223;-79
2021/07/31 02:37:37;;;;;;;31.23;6.60;;;16.40;99.90;;;;;;5008040;28;20204;-82
2021/07/31 02:40:04;;;;;;;25.95;6.38;;;16.40;99.90;;;;;;5010356;28;20206;-79
2021/07/31 02:42:31;;;;;;;21.48;5.63;;;16.50;99.90;;;;;;5010188;28;20203;-78
2021/07/31 02:45:01;;;;;;;20.77;6.28;;;16.50;99.90;;;;;;5010054;28;20211;-80
2021/07/31 02:47:30;;;;;;;21.75;5.45;;;16.50;99.90;;;;;;5009679;28;20227;-78
2021/07/31 02:49:56;;;;;;;26.40;6.40;;;16.50;99.90;;;;;;5010293;28;20215;-78
2021/07/31 02:52:23;;;;;;;31.73;8.25;;;16.50;99.90;;;;;;5010215;28;20218;-78
2021/07/31 02:54:50;;;;;;;32.08;6.97;;;16.50;99.90;;;;;;5009997;28;20682;-79
2021/07/31 02:57:17;;;;;;;25.10;5.88;;;16.50;99.90;;;;;;5011053;28;20751;-79
2021/07/31 02:59:44;;;;;;;19.77;4.60;;;16.50;99.90;;;;;;5012078;28;20210;-80
2021/07/31 03:02:10;;;;;;;19.92;4.95;;;16.50;99.90;;;;;;5010566;28;20214;-81
2021/07/31 03:04:39;;;;;;;22.25;5.50;;;16.50;99.90;;;;;;5010706;28;20305;-79
2021/07/31 03:07:06;;;;;;;21.30;6.30;;;16.50;99.90;;;;;;5009977;28;20273;-77
2021/07/31 03:09:32;;;;;;;20.33;5.03;;;16.50;99.90;;;;;;5010391;28;20191;-79
2021/07/31 03:11:59;;;;;;;19.08;5.18;;;16.40;99.90;;;;;;5009413;28;20218;-81
2021/07/31 03:14:26;;;;;;;23.65;6.78;;;16.50;99.90;;;;;;5009279;28;20213;-80
2021/07/31 03:16:54;;;;;;;16.38;4.80;;;16.40;99.90;;;;;;5008267;28;20206;-79
2021/07/31 03:19:21;;;;;;;17.58;5.97;;;16.40;99.90;;;;;;5007913;28;20239;-78
2021/07/31 03:21:49;;;;;;;20.27;6.82;;;16.50;99.90;;;;;;5025685;28;20225;-79
2021/07/31 03:24:16;;;;;;;20.85;7.55;;;16.50;99.90;;;;;;5028607;28;20195;-79
2021/07/31 03:26:43;;;;;;;15.35;5.85;;;16.60;99.90;;;;;;5027247;28;20223;-79
2021/07/31 03:29:09;;;;;;;19.50;7.20;;;16.60;99.90;;;;;;5008716;28;20214;-80
2021/07/31 03:31:36;;;;;;;19.73;7.18;;;16.50;99.90;;;;;;5009019;28;20222;-78
2021/07/31 03:34:03;;;;;;;18.50;6.90;;;16.50;99.90;;;;;;5009579;28;20206;-80
2021/07/31 03:36:30;;;;;;;15.95;5.85;;;16.50;99.90;;;;;;5008266;28;20203;-80
2021/07/31 03:38:58;;;;;;;14.77;6.78;;;16.50;99.90;;;;;;5006747;28;20211;-77
2021/07/31 03:41:24;;;;;;;20.17;7.15;;;16.50;99.90;;;;;;5008563;28;20191;-79
2021/07/31 03:43:51;;;;;;;11.05;5.75;;;16.50;99.90;;;;;;5008583;28;20240;-79
2021/07/31 03:46:18;;;;;;;13.95;5.47;;;16.50;99.90;;;;;;5026697;28;20230;-83
2021/07/31 03:48:45;;;;;;;13.25;5.63;;;16.50;99.90;;;;;;5021618;28;20529;-82
2021/07/31 03:51:11;;;;;;;10.68;5.55;;;16.50;99.90;;;;;;5008547;28;20949;-81
2021/07/31 03:53:38;;;;;;;16.45;6.32;;;16.50;99.90;;;;;;5008826;28;20817;-78
2021/07/31 03:56:08;;;;;;;14.25;5.75;;;16.50;99.90;;;;;;5009416;28;20210;-81
2021/07/31 03:58:35;;;;;;;17.30;6.00;;;16.50;99.90;;;;;;5028877;28;20214;-79
2021/07/31 04:01:02;;;;;;;14.60;4.93;;;16.50;99.90;;;;;;5028165;28;20213;-80
2021/07/31 04:03:29;;;;;;;14.45;5.05;;;16.50;99.90;;;;;;5012677;28;20207;-79
2021/07/31 04:05:55;;;;;;;11.98;4.28;;;16.50;99.90;;;;;;5009382;28;20230;-80
2021/07/31 04:08:22;;;;;;;12.75;4.65;;;16.50;99.90;;;;;;5009271;28;20262;-80
2021/07/31 04:10:49;;;;;;;12.93;4.15;;;16.50;99.90;;;;;;5011014;28;20215;-79
2021/07/31 04:13:17;;;;;;;13.95;4.57;;;16.50;99.90;;;;;;5010805;28;20206;-80
2021/07/31 04:15:44;;;;;;;15.48;4.70;;;16.50;99.90;;;;;;5010210;28;20210;-80
2021/07/31 04:18:10;;;;;;;14.60;5.40;;;16.50;99.90;;;;;;5008467;28;20258;-79
2021/07/31 04:20:37;;;;;;;17.67;5.50;;;16.50;99.90;;;;;;5008766;28;20203;-81
2021/07/31 04:23:04;;;;;;;23.55;5.53;;;16.50;99.90;;;;;;5009193;28;20207;-79
2021/07/31 04:25:31;;;;;;;16.70;5.80;;;16.60;99.90;;;;;;5014332;28;20210;-80
2021/07/31 04:27:58;;;;;;;14.35;5.53;;;16.50;99.90;;;;;;5028733;28;20223;-79
2021/07/31 04:30:27;;;;;;;11.65;4.70;;;16.50;99.90;;;;;;5028648;28;20191;-79
2021/07/31 04:32:56;;;;;;;16.70;4.85;;;16.50;99.90;;;;;;5027134;28;20225;-78
2021/07/31 04:35:23;;;;;;;14.82;4.72;;;16.50;99.90;;;;;;5028575;28;20202;-80
2021/07/31 04:37:49;;;;;;;11.80;4.40;;;16.60;99.90;;;;;;5027897;28;20210;-80
2021/07/31 04:40:16;;;;;;;16.15;4.75;;;16.60;99.90;;;;;;5010311;28;20211;-81
2021/07/31 04:42:43;;;;;;;16.13;4.25;;;16.60;99.90;;;;;;5010598;28;20557;-81
2021/07/31 04:45:10;;;;;;;12.45;4.53;;;16.60;99.90;;;;;;5013665;28;20298;-81
2021/07/31 04:47:39;;;;;;;17.75;5.00;;;16.60;99.90;;;;;;5016853;28;20230;-80
2021/07/31 04:50:07;;;;;;;17.30;4.53;;;16.60;99.90;;;;;;5018242;28;20314;-80
2021/07/31 04:52:35;;;;;;;12.15;4.82;;;16.60;99.90;;;;;;5014437;28;20246;-79
2021/07/31 04:55:02;;;;;;;11.43;3.47;;;16.60;99.90;;;;;;5012847;28;20214;-83
2021/07/31 04:57:29;;;;;;;13.52;3.65;;;16.70;99.90;;;;;;5008467;28;20230;-80
2021/07/31 04:59:56;;;;;;;19.75;4.57;;;16.70;99.90;;;;;;5008355;28;20210;-79
2021/07/31 05:02:22;;;;;;;16.90;4.40;;;16.80;99.90;;;;;;5006832;28;20203;-80
2021/07/31 05:04:51;;;;;;;15.23;4.70;;;16.80;99.90;;;;;;5008556;28;20609;-82
2021/07/31 05:07:17;;;;;;;13.32;4.75;;;16.80;99.90;;;;;;5006933;28;20245;-79
2021/07/31 05:09:44;;;;;;;12.30;3.83;;;16.80;99.90;;;;;;5014627;28;20203;-79
2021/07/31 05:12:11;;;;;;;9.52;3.55;;;16.80;99.90;;;;;;5026682;28;20610;-80
2021/07/31 05:14:38;;;;;;;10.13;3.45;;;16.80;99.90;;;;;;5022341;28;20199;-81
2021/07/31 05:17:05;;;;;;;10.18;4.03;;;16.80;99.90;;;;;;5007808;28;20199;-79
2021/07/31 05:19:33;;;;;;;13.07;4.80;;;16.90;99.90;;;;;;5006966;28;20250;-81
2021/07/31 05:22:01;;;;;;;7.57;3.85;;;16.90;99.90;;;;;;5006883;28;20210;-82
2021/07/31 05:24:28;;;;;;;10.52;4.30;;;16.90;99.90;;;;;;5007719;28;20204;-80
2021/07/31 05:26:55;;;;;;;17.45;5.05;;;16.90;99.90;;;;;;5011318;28;20242;-82
2021/07/31 05:29:21;;;;;;;12.48;4.18;;;16.90;99.90;;;;;;5012089;28;20206;-77
2021/07/31 05:31:48;;;;;;;8.02;3.83;;;16.90;99.90;;;;;;5009805;28;20203;-79
2021/07/31 05:34:15;;;;;;;11.63;3.65;;;16.90;99.90;;;;;;5007532;28;20697;-79
2021/07/31 05:36:42;;;;;;;10.80;4.25;;;16.90;99.90;;;;;;5007620;28;20203;-79
2021/07/31 05:39:12;;;;;;;7.63;3.40;;;16.90;99.90;;;;;;5007307;28;20215;-80
2021/07/31 05:41:39;;;;;;;12.88;4.05;;;17.00;99.90;;;;;;5008120;28;20218;-79
2021/07/31 05:44:06;;;;;;;11.63;4.20;;;17.00;99.90;;;;;;5007082;28;20223;-82
2021/07/31 05:46:33;;;;;;;14.40;3.60;;;17.00;99.90;;;;;;5007125;28;20553;-78
2021/07/31 05:49:00;;;;;;;13.40;3.78;;;17.00;99.90;;;;;;5007244;28;20203;-80
2021/07/31 05:51:27;;;;;;;10.65;3.63;;;17.00;99.90;;;;;;5007308;28;20222;-77
2021/07/31 05:53:53;;;;;;;18.17;4.60;;;17.00;99.90;;;;;;5007229;28;20207;-83
2021/07/31 05:56:21;;;;;;;11.73;3.45;;;17.10;99.90;;;;;;5006815;28;20203;-81
2021/07/31 05:58:48;;;;;;;11.10;3.70;;;17.10;99.90;;;;;;5006509;28;20199;-80
2021/07/31 06:01:15;;;;;;;9.02;3.85;;;17.20;99.90;;;;;;5005721;28;20207;-81
2021/07/31 06:03:42;;;;;;;6.20;3.33;;;17.20;99.90;;;;;;5006368;28;20207;-80
2021/07/31 06:06:09;;;;;;;9.07;3.45;;;17.20;99.90;;;;;;5006385;28;20792;-78
2021/07/31 06:08:35;;;;;;;9.45;3.63;;;17.20;99.90;;;;;;5006595;28;20233;-79
2021/07/31 06:11:03;;;;;;;17.38;4.18;;;17.20;99.90;;;;;;5006457;28;20211;-80
2021/07/31 06:13:32;;;;;;;9.88;2.85;;;17.50;99.90;;;;;;5006218;28;20614;-78
2021/07/31 06:15:59;;;;;;;9.15;3.58;;;17.70;99.90;;;;;;5006686;28;20219;-82
2021/07/31 06:18:26;;;;;;;7.85;2.72;;;17.70;99.90;;;;;;5006986;28;20354;-80
2021/07/31 06:20:53;;;;;;;8.77;2.80;;;17.60;99.90;;;;;;5006679;28;20219;-81
2021/07/31 06:23:20;;;;;;;6.07;2.65;;;17.50;99.90;;;;;;5007395;28;20749;-81
2021/07/31 06:25:47;;;;;;;5.50;2.60;;;17.50;99.90;;;;;;5006232;28;20207;-80
2021/07/31 06:28:13;;;;;;;6.68;2.30;;;17.40;99.90;;;;;;5006128;28;20222;-80
2021/07/31 06:30:44;;;;;;;13.52;3.80;;;17.40;99.90;;;;;;5006620;28;20210;-80
2021/07/31 06:33:12;;;;;;;6.85;2.40;;;17.40;99.90;;;;;;5006092;28;20317;-83
2021/07/31 06:35:39;;;;;;;6.68;2.20;;;17.30;99.90;;;;;;5006131;28;20203;-79
2021/07/31 06:38:06;;;;;;;3.97;1.80;;;17.20;99.90;;;;;;5017566;28;20217;-78
2021/07/31 06:40:33;;;;;;;8.10;2.70;;;17.20;99.90;;;;;;5031427;28;20186;-78
2021/07/31 06:43:00;;;;;;;5.63;2.17;;;17.20;99.90;;;;;;5031668;28;20191;-79
2021/07/31 06:45:26;;;;;;;8.45;2.78;;;17.20;99.90;;;;;;5030046;28;20234;-78
2021/07/31 06:47:54;;;;;;;9.35;2.83;;;17.20;99.90;;;;;;5030288;28;20217;-80
2021/07/31 06:50:21;;;;;;;12.82;3.08;;;17.30;99.90;;;;;;5027888;28;20805;-82
2021/07/31 06:52:48;;;;;;;7.68;3.47;;;17.30;99.90;;;;;;5027931;28;20206;-80
2021/07/31 06:55:15;;;;;;;5.53;2.60;;;17.30;99.90;;;;;;5024377;28;20210;-83
2021/07/31 06:57:42;;;;;;;8.52;2.70;;;17.40;99.90;;;;;;5026594;28;20202;-78
2021/07/31 07:00:10;;;;;;;8.52;3.05;;;17.50;99.90;;;;;;5026113;28;20210;-81
2021/07/31 07:02:36;;;;;;;5.75;1.95;;;17.60;99.90;;;;;;5021792;28;20574;-82
2021/07/31 07:05:05;;;;;;;8.15;2.03;;;17.60;99.90;;;;;;5008121;28;20202;-82
2021/07/31 07:07:32;;;;;;;8.55;2.58;;;17.60;99.90;;;;;;5008512;28;20231;-79
2021/07/31 07:09:59;;;;;;;8.25;2.80;;;17.60;99.90;;;;;;5007742;28;20195;-82
2021/07/31 07:12:25;;;;;;;7.15;2.67;;;17.60;99.90;;;;;;5007380;28;20217;-84
2021/07/31 07:14:52;;;;;;;7.47;2.55;;;17.60;99.90;;;;;;5007551;28;20203;-81
2021/07/31 07:17:19;;;;;;;7.97;2.70;;;17.60;99.90;;;;;;5007539;28;20281;-78
2021/07/31 07:19:46;;;;;;;6.65;2.30;;;17.60;99.90;;;;;;5007285;28;20211;-80
2021/07/31 07:22:14;;;;;;;9.27;3.08;;;17.50;99.90;;;;;;5005821;28;20234;-80
2021/07/31 07:24:41;;;;;;;9.70;2.55;;;17.50;99.90;;;;;;5006614;28;20198;-79
2021/07/31 07:27:08;;;;;;;9.07;2.90;;;17.40;99.90;;;;;;5016125;28;20226;-79
2021/07/31 07:29:34;;;;;;;4.80;1.75;;;17.40;99.90;;;;;;5028600;28;20211;-82
2021/07/31 07:32:01;;;;;;;3.50;2.00;;;17.30;99.90;;;;;;5015174;28;20207;-79
2021/07/31 07:34:28;;;;;;;6.05;1.95;;;17.20;99.90;;;;;;5008617;28;20202;-79
2021/07/31 07:40:23;;;;;;;6.00;2.03;;;17.30;99.90;;;;;;4995588;28;20219;-79
2021/07/31 07:42:49;;;;;;;5.03;2.80;;;17.40;99.90;;;;;;5008159;28;20211;-79
2021/07/31 07:45:16;;;;;;;7.25;2.50;;;17.40;99.90;;;;;;5007910;28;20203;-78
2021/07/31 07:47:43;;;;;;;4.95;2.97;;;17.40;99.90;;;;;;5007967;28;20231;-79
2021/07/31 07:50:11;;;;;;;8.27;3.30;;;17.50;99.90;;;;;;5007070;28;20578;-81
2021/07/31 07:52:38;;;;;;;8.50;3.33;;;17.70;99.90;;;;;;5006889;28;20222;-80
2021/07/31 07:58:29;;;;;;;6.95;3.67;;;17.80;99.90;;;;;;5033651;28;20209;-78
2021/07/31 08:00:56;;;;;;;15.25;4.47;;;17.90;99.90;;;;;;5038107;28;20211;-79
2021/07/31 08:03:23;;;;;;;9.60;3.90;;;18.00;99.90;;;;;;5015872;28;20215;-79
2021/07/31 08:05:49;;;;;;;10.73;4.10;;;18.20;99.90;;;;;;5012873;28;20536;-75
2021/07/31 08:08:16;;;;;;;8.40;3.80;;;18.30;99.90;;;;;;5028608;28;20218;-78
2021/07/31 08:10:43;;;;;;;7.03;3.50;;;18.30;99.90;;;;;;5026159;28;20216;-80
2021/07/31 08:13:13;;;;;;;9.50;3.58;;;18.40;99.90;;;;;;5009512;28;20274;-80
2021/07/31 08:15:41;;;;;;;9.73;3.33;;;18.50;99.90;;;;;;5008763;28;20238;-82
2021/07/31 08:18:08;;;;;;;11.15;3.55;;;18.50;99.90;;;;;;5007264;28;20235;-80
2021/07/31 08:20:36;;;;;;;10.93;4.20;;;18.30;99.90;;;;;;5007613;28;20279;-79
2021/07/31 08:23:02;;;;;;;7.15;4.15;;;18.20;99.90;;;;;;5008169;28;20273;-79
2021/07/31 08:25:29;;;;;;;12.18;4.72;;;18.10;99.90;;;;;;5007516;28;20226;-79
2021/07/31 08:27:56;;;;;;;10.57;5.40;;;18.20;99.90;;;;;;5007411;28;20234;-79
2021/07/31 08:30:23;;;;;;;12.52;5.10;;;18.40;99.90;;;;;;5007722;28;20215;-78
2021/07/31 08:32:51;;;;;;;12.02;4.32;;;18.60;99.90;;;;;;5007917;28;20195;-79
2021/07/31 08:35:18;;;;;;;11.43;5.43;;;18.60;99.90;;;;;;5007697;28;20199;-79
2021/07/31 08:37:45;;;;;;;11.30;4.28;;;18.70;99.90;;;;;;5007172;28;20204;-82
2021/07/31 08:40:13;;;;;;;11.32;4.10;;;18.70;99.90;;;;;;5007818;28;20230;-79
2021/07/31 08:42:41;;;;;;;11.45;4.18;;;18.70;99.90;;;;;;5007538;28;20203;-80
2021/07/31 08:45:11;;;;;;;12.55;4.82;;;18.70;99.90;;;;;;5007622;28;20207;-80
2021/07/31 08:47:39;;;;;;;10.80;4.45;;;18.70;99.90;;;;;;5012466;28;20276;-77
2021/07/31 08:50:10;;;;;;;10.07;4.25;;;18.70;99.90;;;;;;5028385;28;20213;-80
2021/07/31 08:52:37;;;;;;;15.77;4.20;;;18.70;99.90;;;;;;5023469;28;20206;-79
2021/07/31 08:55:05;;;;;;;10.45;4.60;;;18.70;99.90;;;;;;5006590;28;20210;-80
2021/07/31 08:57:32;;;;;;;12.50;4.15;;;18.80;99.90;;;;;;5017702;28;20213;-82
2021/07/31 08:59:58;;;;;;;13.07;4.10;;;18.70;99.90;;;;;;5026197;28;20206;-81
2021/07/31 09:02:25;;;;;;;9.30;4.05;;;18.60;99.90;;;;;;5024364;28;20222;-78
2021/07/31 09:04:53;;;;;;;10.77;4.63;;;18.60;99.90;;;;;;5007865;28;20908;-81
2021/07/31 09:07:22;;;;;;;12.13;5.07;;;18.60;99.90;;;;;;5007222;28;20214;-85
2021/07/31 09:09:49;;;;;;;13.82;4.63;;;18.60;99.90;;;;;;5007794;28;20195;-83
2021/07/31 09:12:16;;;;;;;9.90;4.25;;;18.70;99.90;;;;;;5007498;28;20212;-83
2021/07/31 09:14:48;;;;;;;10.15;4.25;;;18.70;99.90;;;;;;5009776;28;20202;-83
2021/07/31 09:17:26;;;;;;;8.48;3.65;;;18.70;99.90;;;;;;5031350;28;20359;-81
2021/07/31 09:19:55;;;;;;;16.63;3.97;;;18.90;99.90;;;;;;5030474;28;20237;-82
2021/07/31 09:22:25;;;;;;;7.00;3.30;;;19.00;99.90;;;;;;5012974;28;20199;-79
2021/07/31 09:25:09;;;;;;;8.38;3.28;;;19.30;99.90;;;;;;5012985;28;20258;-82
2021/07/31 09:27:35;;;;;;;10.02;3.30;;;19.50;99.90;;;;;;5010595;28;20227;-82
2021/07/31 09:30:04;;;;;;;6.70;2.80;;;19.80;99.90;;;;;;5010962;28;20203;-81
2021/07/31 09:32:42;;;;;;;5.50;2.80;;;20.30;99.90;;;;;;5025846;28;20218;-82
2021/07/31 09:35:22;;;;;;;6.68;2.70;;;20.60;99.90;;;;;;5029828;28;20257;-82
2021/07/31 09:37:51;;;;;;;6.55;2.95;;;20.90;99.90;;;;;;5029766;28;20621;-80
2021/07/31 09:40:31;;;;;;;8.73;2.92;;;21.20;99.90;;;;;;5010035;28;20211;-82
2021/07/31 09:43:13;;;;;;;6.07;2.63;;;21.40;99.90;;;;;;5008768;28;20210;-84
2021/07/31 09:45:40;;;;;;;7.97;2.97;;;21.30;99.90;;;;;;5010918;28;20199;-83
2021/07/31 09:48:08;;;;;;;5.03;2.40;;;21.20;99.90;;;;;;5024230;28;20222;-83
2021/07/31 09:50:37;;;;;;;5.30;2.08;;;21.30;99.90;;;;;;5030528;28;20225;-85
2021/07/31 09:53:13;;;;;;;7.05;2.90;;;21.30;99.90;;;;;;5030875;28;20206;-86
2021/07/31 09:55:44;;;;;;;6.30;2.70;;;21.20;99.90;;;;;;5012184;28;20219;-77
2021/07/31 09:58:15;;;;;;;11.75;3.45;;;21.40;99.90;;;;;;5010961;28;20211;-84
2021/07/31 10:00:44;;;;;;;7.18;2.83;;;21.50;99.90;;;;;;5015183;28;20227;-86
2021/07/31 10:03:11;;;;;;;8.40;3.67;;;21.70;99.90;;;;;;5012606;28;20199;-83
2021/07/31 10:05:40;;;;;;;6.35;2.85;;;21.50;99.90;;;;;;5011200;28;20218;-83
2021/07/31 10:08:08;;;;;;;8.43;2.92;;;21.70;99.90;;;;;;5028746;28;20313;-83
2021/07/31 10:10:38;;;;;;;6.70;2.83;;;21.70;99.90;;;;;;5027348;28;20507;-84
2021/07/31 10:13:05;;;;;;;5.93;2.35;;;21.70;99.90;;;;;;5027648;28;20700;-83
2021/07/31 10:15:32;;;;;;;5.40;2.63;;;21.50;99.90;;;;;;5026947;28;20210;-83
2021/07/31 10:17:59;;;;;;;9.60;3.22;;;21.00;99.90;;;;;;5027912;28;20300;-82
2021/07/31 10:20:29;;;;;;;9.43;2.75;;;20.80;99.90;;;;;;5015204;28;20199;-82
2021/07/31 10:22:57;;;;;;;6.65;2.78;;;20.70;99.90;;;;;;5007095;28;20211;-80
2021/07/31 10:25:25;;;;;;;6.88;2.90;;;20.50;99.90;;;;;;5007032;28;20216;-81
2021/07/31 10:28:13;;;;;;;7.47;2.78;;;20.50;99.90;;;;;;5004804;28;20724;-78
2021/07/31 10:30:42;;;;;;;7.35;3.13;;;20.50;99.90;;;;;;5004613;28;20595;-77
2021/07/31 10:33:46;;;;;;;7.05;3.10;;;20.50;99.90;;;;;;5004160;28;20207;-78
2021/07/31 10:36:38;;;;;;;5.78;3.10;;;20.70;99.90;;;;;;5004124;28;20505;-77
2021/07/31 10:39:35;;;;;;;7.70;2.80;;;21.10;99.90;;;;;;5019239;28;20199;-76
2021/07/31 10:42:02;;;;;;;4.97;2.30;;;21.20;99.90;;;;;;5004642;28;20206;-82
2021/07/31 10:44:30;;;;;;;8.13;2.75;;;21.20;99.90;;;;;;5006996;28;20629;-85
2021/07/31 10:47:38;;;;;;;6.18;2.10;;;21.10;99.90;;;;;;5006867;28;20679;-78
2021/07/31 10:50:37;;;;;;;10.25;3.05;;;21.00;99.90;;;;;;5005826;28;20383;-83
2021/07/31 10:53:05;;;;;;;7.53;2.58;;;20.90;99.90;;;;;;5006112;28;20234;-84
2021/07/31 10:56:01;;;;;;;6.45;1.60;;;20.80;99.90;;;;;;5006159;28;20294;-82
2021/07/31 10:58:30;;;;;;;4.88;1.75;;;20.80;99.90;;;;;;5012771;28;20198;-81
2021/07/31 11:01:21;;;;;;;5.15;2.05;;;20.80;99.90;;;;;;5029004;28;20203;-82
2021/07/31 11:03:48;;;;;;;6.30;1.50;;;21.20;99.90;;;;;;5017160;28;20968;-82
2021/07/31 11:06:18;;;;;;;4.65;1.90;;;21.70;99.90;;;;;;5007644;28;20692;-80
2021/07/31 11:09:09;;;;;;;9.43;1.95;;;21.70;99.90;;;;;;5009317;28;20322;-84
2021/07/31 11:11:36;;;;;;;11.60;3.45;;;21.30;99.90;;;;;;5010961;28;20206;-81
2021/07/31 11:14:03;;;;;;;6.45;2.22;;;21.10;99.90;;;;;;5010228;28;20217;-80
2021/07/31 11:16:29;;;;;;;8.05;2.28;;;21.00;99.90;;;;;;5011121;28;20211;-80
2021/07/31 11:18:58;;;;;;;7.82;2.40;;;21.00;99.90;;;;;;5011259;28;20238;-79
2021/07/31 11:21:27;;;;;;;8.35;2.65;;;21.20;99.90;;;;;;5010168;28;20203;-83
2021/07/31 11:23:56;;;;;;;7.35;2.50;;;21.20;99.90;;;;;;5009791;28;20219;-81
2021/07/31 11:26:48;;;;;;;6.88;3.13;;;21.40;99.90;;;;;;5009376;28;20207;-81
2021/07/31 11:29:18;;;;;;;9.75;2.95;;;21.50;99.90;;;;;;4998701;28;20231;-79
2021/07/31 11:31:58;;;;;;;8.55;2.58;;;21.60;99.90;;;;;;5009407;28;20558;-79
2021/07/31 11:34:25;;;;;;;6.95;2.13;;;21.80;99.90;;;;;;5018821;28;20221;-84
2021/07/31 11:36:58;;;;;;;6.07;2.30;;;21.90;99.90;;;;;;5029418;28;20209;-79
2021/07/31 11:39:25;;;;;;;4.90;2.00;;;21.90;99.90;;;;;;5029250;28;20217;-83
2021/07/31 11:41:57;;;;;;;6.75;2.53;;;22.10;99.90;;;;;;5028981;28;20199;-77
2021/07/31 11:44:25;;;;;;;6.47;2.88;;;22.20;99.90;;;;;;5026080;28;20225;-76
2021/07/31 11:46:53;;;;;;;10.65;2.92;;;22.10;99.90;;;;;;5021977;28;20200;-82
2021/07/31 11:49:28;;;;;;;8.57;3.00;;;21.90;99.90;;;;;;5007337;28;20231;-81
2021/07/31 11:51:57;;;;;;;7.43;2.85;;;21.90;99.90;;;;;;5007269;28;20470;-80
2021/07/31 11:54:25;;;;;;;5.75;2.67;;;22.10;99.90;;;;;;5007761;28;20786;-78
2021/07/31 11:56:52;;;;;;;7.97;2.60;;;21.90;99.90;;;;;;5009182;28;20198;-82
2021/07/31 11:59:24;;;;;;;9.98;3.00;;;22.00;99.90;;;;;;5009198;28;20530;-78
2021/07/31 12:01:52;;;;;;;9.70;3.72;;;22.10;99.90;;;;;;5009599;28;20227;-79
2021/07/31 12:04:42;;;;;;;8.80;3.22;;;22.00;99.90;;;;;;5029019;28;20305;-84
2021/07/31 12:07:12;;;;;;;8.80;3.20;;;22.20;99.90;;;;;;5029399;28;20211;-79
2021/07/31 12:09:41;;;;;;;6.20;2.90;;;22.10;99.90;;;;;;5008664;28;20230;-81
2021/07/31 12:12:23;;;;;;;9.07;3.03;;;22.20;99.90;;;;;;5008629;28;20203;-82
2021/07/31 12:15:08;;;;;;;7.22;3.20;;;22.20;99.90;;;;;;5009331;28;20207;-78
2021/07/31 12:17:37;;;;;;;10.32;3.40;;;22.30;99.90;;;;;;5009037;28;21483;-81
2021/07/31 12:20:05;;;;;;;13.85;4.38;;;22.20;99.90;;;;;;5007372;28;20215;-82
2021/07/31 12:22:36;;;;;;;9.02;3.55;;;21.90;99.90;;;;;;5009566;28;20203;-84
2021/07/31 12:25:21;;;;;;;8.15;3.67;;;21.90;99.90;;;;;;5016894;28;20213;-79
2021/07/31 12:27:52;;;;;;;9.77;4.45;;;21.90;99.90;;;;;;5029597;28;20190;-77
2021/07/31 12:30:25;;;;;;;8.15;3.65;;;22.00;99.90;;;;;;5020963;28;20224;-80
2021/07/31 12:32:53;;;;;;;9.18;3.45;;;22.10;99.90;;;;;;5009281;28;20309;-83
2021/07/31 12:35:36;;;;;;;8.63;4.07;;;22.10;99.90;;;;;;5008125;28;20234;-84
2021/07/31 12:38:10;;;;;;;10.32;3.58;;;22.40;99.90;;;;;;5007678;28;20233;-84
2021/07/31 12:40:39;;;;;;;5.82;2.92;;;22.30;99.90;;;;;;5009285;28;20211;-81
2021/07/31 12:43:07;;;;;;;6.05;3.17;;;22.20;99.90;;;;;;5026036;28;20491;-81
2021/07/31 12:45:34;;;;;;;7.55;3.33;;;21.90;99.90;;;;;;5026448;28;20210;-83
2021/07/31 12:48:01;;;;;;;9.80;3.67;;;21.80;99.90;;;;;;5018801;28;20203;-82
2021/07/31 12:50:28;;;;;;;14.65;4.18;;;21.70;99.90;;;;;;5007422;28;20223;-81
2021/07/31 12:52:56;;;;;;;10.93;3.42;;;21.50;99.90;;;;;;5005730;28;20222;-81
2021/07/31 12:55:25;;;;;;;8.20;4.07;;;21.50;99.90;;;;;;5007325;28;20803;-78